Archival Weather

Republic

Farmingdale, New York (KFRG)

Report from: Sunday, February 18, 2024 2:53 AM EST
Current time: Friday, June 14, 2024 8:47 AM EDT

Current weather – Weather history – Daily summaries
Weather forecast

Temperature-5.0°C (23.0°F)
Wind chill-8.4°C (16.9°F)
Dew point-11.7°C (10.9°F)
Winds 4 kts (2.1 m/s, 4.6 mph) Southwest (220°)
Visibility10 mi. (16.1 km)
Clouds Sky clear
Altimeter29.94 in.Hg (1014 mB)
Relative humidity59 %
Density altitude-2,451 ft. (-747 m)
Sea-level pressure101.4 kPa (1014 mB, 29.94 in.Hg)
Remarks Fully automated report
Automated weather observing station without precipitation discriminator
Freezing rain sensor not operating
Flight conditions Visual Meteorological Conditions
Raw dataKFRG 180753Z AUTO 22004KT 10SM CLR M05/M12 A2994 RMK AO1 SLP139 T10501117 FZRANO
An error has occurred. This application may no longer respond until reloaded. Reload 🗙